createdAt,value
2022-09-10T00:00:47.215Z,99998.34
2022-09-10T00:01:48.763Z,100000.69
2022-09-10T00:02:50.335Z,99999.59
2022-09-10T00:03:53.402Z,99994.78
2022-09-10T00:04:54.867Z,99995.94
2022-09-10T00:05:56.314Z,100000.59
2022-09-10T00:06:57.895Z,99996.63
2022-09-10T00:07:59.395Z,99997.78
2022-09-10T00:09:01.126Z,100005.75
2022-09-10T00:10:03.068Z,99997.28
2022-09-10T00:11:05.512Z,100005.25
2022-09-10T00:12:07.108Z,99999.28
2022-09-10T00:13:09.355Z,100003.25
2022-09-10T00:14:12.486Z,100009.88
2022-09-10T00:15:14.636Z,100006.72
2022-09-10T00:16:16.370Z,100011.22
2022-09-10T00:17:17.854Z,100005.88
2022-09-10T00:18:20.693Z,100005.56
2022-09-10T00:19:22.234Z,100009.88
2022-09-10T00:20:24.340Z,100006.72
2022-09-10T00:21:25.784Z,100005.03
2022-09-10T00:22:27.235Z,100008.19
2022-09-10T00:23:28.888Z,100012.47
2022-09-10T00:24:30.336Z,100014.97
2022-09-10T00:25:35.111Z,100004.94
2022-09-10T00:26:39.571Z,100006.81
2022-09-10T00:27:41.324Z,100002.84
2022-09-10T00:28:43.154Z,100003.16
2022-09-10T00:29:44.647Z,100003.59
2022-09-10T00:30:47.134Z,100010.59
2022-09-10T00:31:48.876Z,100009.59
2022-09-10T00:32:52.700Z,100010.09
2022-09-10T00:33:54.857Z,100005.09
2022-09-10T00:34:56.334Z,99999.28
2022-09-10T00:35:58.332Z,100006.72
2022-09-10T00:37:00.188Z,100008.34
2022-09-10T00:38:01.649Z,100004.16
2022-09-10T00:39:04.439Z,100007.50
2022-09-10T00:40:07.223Z,100009.13
2022-09-10T00:41:09.284Z,100000.81
2022-09-10T00:42:11.458Z,100009.13
2022-09-10T00:43:16.650Z,100000.00
2022-09-10T00:44:36.868Z,100005.31
2022-09-10T00:45:38.412Z,100003.97
2022-09-10T00:46:43.510Z,99999.16
2022-09-10T00:47:47.031Z,100002.63
2022-09-10T00:48:48.535Z,99990.97
2022-09-10T00:49:51.959Z,99994.63
2022-09-10T00:50:53.523Z,99993.16
2022-09-10T00:51:55.059Z,99996.16
2022-09-10T00:52:57.208Z,100000.66
2022-09-10T00:53:58.711Z,99995.16
2022-09-10T00:55:00.206Z,99999.13
2022-09-10T00:56:02.640Z,100002.13
2022-09-10T00:57:05.736Z,100005.28
2022-09-10T00:58:07.939Z,100010.94
2022-09-10T00:59:09.679Z,99994.00
2022-09-10T01:00:12.095Z,99998.59
2022-09-10T01:01:15.226Z,99995.94
2022-09-10T01:02:16.829Z,99998.75
2022-09-10T01:03:21.473Z,99998.94
2022-09-10T01:04:26.942Z,100001.97
2022-09-10T01:05:29.333Z,99993.34
2022-09-10T01:06:31.015Z,99999.16
2022-09-10T01:07:33.678Z,99993.19
2022-09-10T01:08:35.196Z,99996.56
2022-09-10T01:09:37.086Z,99997.06
2022-09-10T01:10:41.522Z,100001.22
2022-09-10T01:11:45.931Z,99996.72
2022-09-10T01:13:05.590Z,100008.84
2022-09-10T01:14:09.995Z,100017.00
2022-09-10T01:15:30.456Z,100009.34
2022-09-10T01:16:31.968Z,100011.03
2022-09-10T01:17:36.151Z,100015.66
2022-09-10T01:18:40.662Z,100017.97
2022-09-10T01:19:48.075Z,100005.84
2022-09-10T01:20:52.596Z,100017.97
2022-09-10T01:22:06.368Z,100016.09
2022-09-10T01:23:26.470Z,100013.44
2022-09-10T01:24:28.887Z,100014.06
2022-09-10T01:25:51.427Z,100015.03
2022-09-10T01:26:59.033Z,100017.19
2022-09-10T01:28:01.946Z,100015.75
2022-09-10T01:29:07.163Z,100023.22
2022-09-10T01:30:19.229Z,100002.97
2022-09-10T01:31:27.801Z,100012.94
2022-09-10T01:32:32.476Z,100010.66
2022-09-10T01:33:46.288Z,100011.16
2022-09-10T01:34:55.079Z,100002.38
2022-09-10T01:35:57.527Z,100004.16
2022-09-10T01:37:04.381Z,100005.13
2022-09-10T01:38:09.360Z,100005.63
2022-09-10T01:39:10.832Z,100005.97
2022-09-10T01:40:12.520Z,100007.31
2022-09-10T01:41:14.279Z,100006.97
2022-09-10T01:42:17.524Z,100006.69
2022-09-10T01:43:19.261Z,99999.66
2022-09-10T01:44:41.963Z,100000.22
2022-09-10T01:45:46.500Z,100004.69
2022-09-10T01:46:52.663Z,99998.72
2022-09-10T01:48:03.823Z,100002.88
2022-09-10T01:49:10.045Z,100004.38
2022-09-10T01:50:12.571Z,100004.47
2022-09-10T01:51:23.584Z,99996.00
2022-09-10T01:52:35.530Z,100000.00
2022-09-10T01:53:43.058Z,99999.66
2022-09-10T01:55:07.211Z,99992.38
2022-09-10T01:56:35.523Z,99999.16
2022-09-10T01:57:52.881Z,100006.97
2022-09-10T01:58:56.378Z,99999.66
2022-09-10T02:00:15.281Z,100001.13
2022-09-10T02:01:22.808Z,100002.47
2022-09-10T02:02:28.868Z,100004.97
2022-09-10T02:03:31.099Z,99999.66
2022-09-10T02:04:32.602Z,99993.34
2022-09-10T02:05:35.312Z,99996.66
2022-09-10T02:06:39.238Z,99999.50
2022-09-10T02:07:40.991Z,100002.31
2022-09-10T02:08:44.802Z,99986.88
2022-09-10T02:09:46.252Z,100000.66
2022-09-10T02:10:55.266Z,99996.66
2022-09-10T02:11:59.635Z,100005.47
2022-09-10T02:13:22.795Z,99996.66
2022-09-10T02:14:43.167Z,99990.66
2022-09-10T02:15:55.586Z,99992.66
2022-09-10T02:16:59.848Z,99991.13
2022-09-10T02:18:01.815Z,99988.63
2022-09-10T02:19:03.305Z,99997.22
2022-09-10T02:20:08.777Z,99986.69
2022-09-10T02:21:10.567Z,99987.66
2022-09-10T02:22:12.037Z,99984.63
2022-09-10T02:23:13.557Z,99991.41
2022-09-10T02:24:15.143Z,100001.69
2022-09-10T02:25:16.643Z,99990.59
2022-09-10T02:26:18.112Z,99997.06
2022-09-10T02:27:19.611Z,99991.22
2022-09-10T02:28:21.072Z,99997.69
2022-09-10T02:29:22.540Z,99992.25
2022-09-10T02:30:24.832Z,99994.75
2022-09-10T02:31:26.673Z,99996.41
2022-09-10T02:32:29.336Z,99995.78
2022-09-10T02:33:31.093Z,99989.31
2022-09-10T02:34:32.950Z,99990.16
2022-09-10T02:35:35.040Z,99986.69
2022-09-10T02:36:36.656Z,99991.66
2022-09-10T02:37:38.253Z,99981.75
2022-09-10T02:38:40.423Z,99985.94
2022-09-10T02:39:43.418Z,99995.09
2022-09-10T02:40:46.815Z,99982.59
2022-09-10T02:41:48.315Z,99981.97
2022-09-10T02:42:50.179Z,99980.81
2022-09-10T02:43:57.435Z,99982.47
2022-09-10T02:44:58.881Z,99980.81
2022-09-10T02:46:00.474Z,99982.13
2022-09-10T02:47:01.958Z,99985.94
2022-09-10T02:48:04.223Z,99977.28
2022-09-10T02:51:10.379Z,99980.38
2022-09-10T02:52:12.758Z,99982.06
2022-09-10T02:53:14.274Z,99976.94
2022-09-10T02:54:16.047Z,99975.56
2022-09-10T02:55:17.819Z,99982.59
2022-09-10T02:56:23.728Z,99981.34
2022-09-10T02:57:25.248Z,99972.69
2022-09-10T02:58:26.800Z,99977.81
2022-09-10T02:59:29.051Z,99978.97
2022-09-10T03:00:32.499Z,99977.19
2022-09-10T03:01:35.175Z,99974.06
2022-09-10T03:02:40.324Z,99969.25
2022-09-10T03:03:42.218Z,99976.88
2022-09-10T03:04:43.810Z,99973.22
2022-09-10T03:05:45.271Z,99977.38
2022-09-10T03:06:49.314Z,99968.59
2022-09-10T03:07:50.835Z,99968.09
2022-09-10T03:08:55.256Z,99975.91
2022-09-10T03:09:56.726Z,99972.44
2022-09-10T03:10:59.418Z,99976.94
2022-09-10T03:12:01.062Z,99967.59
2022-09-10T03:13:02.509Z,99971.81
2022-09-10T03:14:04.062Z,99970.66
2022-09-10T03:15:06.915Z,99976.03
2022-09-10T03:16:09.564Z,99979.28
2022-09-10T03:17:11.123Z,99974.63
2022-09-10T03:18:12.863Z,99969.50
2022-09-10T03:19:14.818Z,99970.84
2022-09-10T03:20:16.289Z,99971.06
2022-09-10T03:21:21.539Z,99972.50
2022-09-10T03:22:23.015Z,99969.50
2022-09-10T03:23:24.573Z,99967.69
2022-09-10T03:24:26.915Z,99972.91
2022-09-10T03:25:28.350Z,99974.25
2022-09-10T03:26:32.071Z,99975.06
2022-09-10T03:27:33.579Z,99970.78
2022-09-10T03:28:35.904Z,99980.38
2022-09-10T03:29:37.775Z,99982.88
2022-09-10T03:30:40.557Z,99983.09
2022-09-10T03:31:46.702Z,99975.78
2022-09-10T03:32:50.456Z,99984.09
2022-09-10T03:33:52.271Z,99987.44
2022-09-10T03:34:54.693Z,99989.44
2022-09-10T03:35:56.264Z,99992.25
2022-09-10T03:37:01.170Z,99988.47
2022-09-10T03:38:03.042Z,99984.19
2022-09-10T03:39:04.674Z,99986.34
2022-09-10T03:40:07.755Z,99981.88
2022-09-10T03:41:11.170Z,99992.00
2022-09-10T03:42:14.123Z,99991.66
2022-09-10T03:43:15.683Z,99987.19
2022-09-10T03:44:17.370Z,99983.03
2022-09-10T03:45:18.876Z,99983.03
2022-09-10T03:46:20.783Z,99989.16
2022-09-10T03:47:22.696Z,99990.84
2022-09-10T03:48:24.159Z,99983.03
2022-09-10T03:49:26.091Z,99986.78
2022-09-10T03:50:27.615Z,99989.94
2022-09-10T03:51:29.374Z,99981.78
2022-09-10T03:52:31.852Z,99986.28
2022-09-10T03:53:33.550Z,99991.81
2022-09-10T03:54:37.283Z,99985.00
2022-09-10T03:55:38.860Z,99987.19
2022-09-10T03:56:40.372Z,99979.03
2022-09-10T03:57:43.718Z,99991.16
2022-09-10T03:58:45.198Z,99981.53
2022-09-10T03:59:46.833Z,99978.09
2022-09-10T04:00:48.376Z,99984.47
2022-09-10T04:01:52.183Z,99982.66
2022-09-10T04:02:53.831Z,99978.84
2022-09-10T04:03:56.780Z,99981.88
2022-09-10T04:05:00.196Z,99983.72
2022-09-10T04:06:01.744Z,99980.56
2022-09-10T04:07:03.951Z,99981.41
2022-09-10T04:08:07.574Z,99978.06
2022-09-10T04:09:10.367Z,99983.72
2022-09-10T04:10:13.226Z,99990.69
2022-09-10T04:11:15.536Z,99988.72
2022-09-10T04:12:17.963Z,99988.09
2022-09-10T04:13:19.438Z,99982.22
2022-09-10T04:14:20.908Z,99985.38
2022-09-10T04:15:23.172Z,99988.72
2022-09-10T04:16:27.403Z,99982.88
2022-09-10T04:17:29.115Z,99979.22
2022-09-10T04:18:33.148Z,99979.56
2022-09-10T04:19:35.374Z,99983.72
2022-09-10T04:20:38.034Z,99985.38
2022-09-10T04:21:43.460Z,99988.72
2022-09-10T04:22:46.718Z,99991.69
2022-09-10T04:23:51.231Z,99982.19
2022-09-10T04:24:53.673Z,99982.50
2022-09-10T04:25:57.086Z,99977.97
2022-09-10T04:26:59.158Z,99981.31
2022-09-10T04:28:01.902Z,99989.13
2022-09-10T04:29:04.225Z,99983.75
2022-09-10T04:30:06.095Z,99984.91
2022-09-10T04:31:07.637Z,99978.09
2022-09-10T04:32:09.202Z,99983.84
2022-09-10T04:33:11.676Z,99988.84
2022-09-10T04:34:15.828Z,99991.03
2022-09-10T04:35:19.280Z,99982.06
2022-09-10T04:36:21.843Z,99987.19
2022-09-10T04:37:24.581Z,99986.69
2022-09-10T04:38:32.131Z,99988.66
2022-09-10T04:39:34.344Z,99986.03
2022-09-10T04:40:36.370Z,99985.06
2022-09-10T04:41:38.902Z,99986.56
2022-09-10T04:42:41.446Z,99988.44
2022-09-10T04:43:43.581Z,99990.94
2022-09-10T04:44:45.064Z,99985.78
2022-09-10T04:45:46.508Z,99986.97
2022-09-10T04:46:47.993Z,99986.31
2022-09-10T04:47:49.633Z,99994.44
2022-09-10T04:48:51.957Z,99988.47
2022-09-10T04:49:57.069Z,99991.28
2022-09-10T04:51:15.728Z,99987.31
2022-09-10T04:52:22.567Z,99989.84
2022-09-10T04:53:25.572Z,99993.78
2022-09-10T04:54:27.102Z,99996.94
2022-09-10T04:55:29.919Z,99992.44
2022-09-10T04:56:31.562Z,99994.06
2022-09-10T04:57:33.587Z,99992.09
2022-09-10T04:58:38.606Z,99990.28
2022-09-10T04:59:40.882Z,99987.97
2022-09-10T05:00:42.673Z,99994.75
2022-09-10T05:01:44.178Z,99989.63
2022-09-10T05:02:46.639Z,99993.59
2022-09-10T05:03:48.147Z,99993.09
2022-09-10T05:04:50.731Z,99992.59
2022-09-10T05:05:52.370Z,99986.97
2022-09-10T05:06:54.034Z,99994.75
2022-09-10T05:07:55.467Z,99994.75
2022-09-10T05:08:57.018Z,99988.22
2022-09-10T05:09:59.980Z,99995.78
2022-09-10T05:11:02.837Z,100001.75
2022-09-10T05:12:04.867Z,99996.03
2022-09-10T05:13:07.642Z,99999.22
2022-09-10T05:14:09.103Z,99994.13
2022-09-10T05:15:10.936Z,99997.31
2022-09-10T05:16:12.575Z,99996.19
2022-09-10T05:17:14.283Z,99996.47
2022-09-10T05:18:16.667Z,99999.78
2022-09-10T05:19:18.114Z,100006.53
2022-09-10T05:20:27.687Z,100002.59
2022-09-10T05:21:31.188Z,99993.06
2022-09-10T05:22:38.450Z,99999.44
2022-09-10T05:23:41.794Z,100004.44
2022-09-10T05:24:44.098Z,100004.09
2022-09-10T05:25:45.624Z,100007.25
2022-09-10T05:26:47.103Z,100003.09
2022-09-10T05:27:49.470Z,99998.94
2022-09-10T05:28:54.953Z,100004.25
2022-09-10T05:29:57.504Z,100010.41
2022-09-10T05:30:58.970Z,100004.75
2022-09-10T05:32:02.706Z,99997.25
2022-09-10T05:33:04.500Z,100003.41
2022-09-10T05:34:08.743Z,100003.72
2022-09-10T05:35:11.506Z,99997.69
2022-09-10T05:36:15.535Z,99998.34
2022-09-10T05:37:18.714Z,100005.00
2022-09-10T05:38:20.763Z,100004.19
2022-09-10T05:39:22.568Z,100001.53
2022-09-10T05:40:25.440Z,99994.75
2022-09-10T05:41:28.208Z,100001.69
2022-09-10T05:42:31.465Z,99995.22
2022-09-10T05:43:33.015Z,99997.53
2022-09-10T05:44:35.132Z,100004.25
2022-09-10T05:45:37.892Z,99998.72
2022-09-10T05:46:40.525Z,100004.56
2022-09-10T05:47:47.742Z,99998.59
2022-09-10T05:48:54.251Z,99995.13
2022-09-10T05:49:56.497Z,99997.94
2022-09-10T05:50:58.336Z,99998.47
2022-09-10T05:51:59.845Z,100002.13
2022-09-10T05:53:01.310Z,100001.50
2022-09-10T05:54:04.439Z,99997.84
2022-09-10T05:55:07.366Z,100002.63
2022-09-10T05:56:09.235Z,100005.75
2022-09-10T05:57:12.172Z,100013.84
2022-09-10T05:58:13.661Z,100008.72
2022-09-10T05:59:16.533Z,100004.09
2022-09-10T06:00:24.867Z,100009.63
2022-09-10T06:01:34.959Z,100007.75
2022-09-10T06:02:39.283Z,100011.94
2022-09-10T06:03:41.016Z,100008.59
2022-09-10T06:04:42.485Z,100015.00
2022-09-10T06:05:50.308Z,100009.03
2022-09-10T06:06:54.247Z,100023.00
2022-09-10T06:07:56.643Z,100018.41
2022-09-10T06:08:58.259Z,100019.44
2022-09-10T06:10:15.403Z,100019.28
2022-09-10T06:11:18.189Z,100022.94
2022-09-10T06:12:23.470Z,100020.03
2022-09-10T06:13:25.003Z,100021.69
2022-09-10T06:14:26.521Z,100016.47
2022-09-10T06:15:28.499Z,100026.94
2022-09-10T06:16:30.032Z,100023.78
2022-09-10T06:17:32.913Z,100033.63
2022-09-10T06:18:34.594Z,100028.88
2022-09-10T06:19:37.714Z,100029.28
2022-09-10T06:20:39.327Z,100032.63
2022-09-10T06:21:41.928Z,100027.81
2022-09-10T06:22:43.470Z,100029.44
2022-09-10T06:23:45.052Z,100036.28
2022-09-10T06:24:49.191Z,100036.16
2022-09-10T06:26:00.119Z,100029.88
2022-09-10T06:27:02.450Z,100034.22
2022-09-10T06:28:05.962Z,100034.88
2022-09-10T06:29:07.806Z,100029.25
2022-09-10T06:30:10.124Z,100030.06
2022-09-10T06:31:17.732Z,100036.22
2022-09-10T06:32:19.336Z,100036.69
2022-09-10T06:33:21.839Z,100041.81
2022-09-10T06:34:23.367Z,100038.44
2022-09-10T06:35:27.095Z,100044.31
2022-09-10T06:36:30.442Z,100041.34
2022-09-10T06:37:34.438Z,100055.34
2022-09-10T06:38:38.886Z,100046.56
2022-09-10T06:39:41.443Z,100047.06
2022-09-10T06:40:55.856Z,100053.44
2022-09-10T06:41:57.324Z,100048.91
2022-09-10T06:43:17.363Z,100049.25
2022-09-10T06:44:34.063Z,100043.50
2022-09-10T06:45:46.392Z,100057.31
2022-09-10T06:47:35.994Z,100052.78
2022-09-10T06:48:38.240Z,100053.00
2022-09-10T06:49:43.203Z,100050.19
2022-09-10T06:50:55.434Z,100058.16
2022-09-10T06:52:01.468Z,100059.31
2022-09-10T06:53:03.379Z,100048.19
2022-09-10T06:54:05.451Z,100048.38
2022-09-10T06:55:07.331Z,100057.16
2022-09-10T06:56:15.205Z,100051.34
2022-09-10T06:57:17.980Z,100045.19
2022-09-10T06:58:19.982Z,100053.66
2022-09-10T06:59:21.781Z,100055.81
2022-09-10T07:00:24.134Z,100054.34
2022-09-10T07:01:28.251Z,100059.03
2022-09-10T07:02:32.708Z,100054.41
2022-09-10T07:03:34.486Z,100051.06
2022-09-10T07:04:35.930Z,100062.56
2022-09-10T07:05:37.475Z,100052.28
2022-09-10T07:06:38.995Z,100057.75
2022-09-10T07:07:44.614Z,100055.75
2022-09-10T07:08:46.896Z,100056.41
2022-09-10T07:09:48.374Z,100049.78
2022-09-10T07:10:51.574Z,100059.59
2022-09-10T07:11:54.464Z,100054.78
2022-09-10T07:12:56.490Z,100063.25
2022-09-10T07:13:58.102Z,100060.94
2022-09-10T07:15:04.035Z,100057.50
2022-09-10T07:16:06.766Z,100060.50
2022-09-10T07:17:08.251Z,100057.03
2022-09-10T07:18:14.135Z,100048.22
2022-09-10T07:19:17.713Z,100052.59
2022-09-10T07:20:21.166Z,100060.41
2022-09-10T07:21:23.235Z,100059.25
2022-09-10T07:22:25.104Z,100053.78
2022-09-10T07:23:26.559Z,100061.28
2022-09-10T07:24:28.579Z,100065.47
2022-09-10T07:25:44.543Z,100060.66
2022-09-10T07:26:57.702Z,100062.13
2022-09-10T07:27:59.322Z,100065.28
2022-09-10T07:29:00.852Z,100058.16
2022-09-10T07:30:02.436Z,100064.31
2022-09-10T07:31:13.650Z,100055.00
2022-09-10T07:32:15.628Z,100062.47
2022-09-10T07:33:17.053Z,100068.97
2022-09-10T07:34:20.462Z,100062.16
2022-09-10T07:35:21.910Z,100066.63
2022-09-10T07:36:24.706Z,100068.34
2022-09-10T07:37:26.283Z,100061.19
2022-09-10T07:38:28.776Z,100072.66
2022-09-10T07:39:31.402Z,100068.03
2022-09-10T07:40:33.799Z,100072.22
2022-09-10T07:41:35.357Z,100066.75
2022-09-10T07:42:39.380Z,100062.09
2022-09-10T07:43:41.667Z,100071.06
2022-09-10T07:44:43.255Z,100064.81
2022-09-10T07:45:44.750Z,100065.84
2022-09-10T07:46:46.556Z,100073.66
2022-09-10T07:47:49.981Z,100078.78
2022-09-10T07:48:55.659Z,100075.97
2022-09-10T07:49:57.635Z,100088.59
2022-09-10T07:51:03.436Z,100076.66
2022-09-10T07:52:05.282Z,100082.00
2022-09-10T07:53:16.239Z,100077.34
2022-09-10T07:54:19.774Z,100077.84
2022-09-10T07:55:27.165Z,100088.31
2022-09-10T07:56:31.802Z,100080.84
2022-09-10T07:57:37.836Z,100090.97
2022-09-10T07:58:40.648Z,100083.00
2022-09-10T07:59:44.350Z,100075.34
2022-09-10T08:00:49.241Z,100082.50
2022-09-10T08:01:50.780Z,100083.50
2022-09-10T08:02:54.336Z,100092.13
2022-09-10T08:03:57.807Z,100087.78
2022-09-10T08:05:01.193Z,100085.75
2022-09-10T08:06:02.886Z,100089.19
2022-09-10T08:07:04.602Z,100085.53
2022-09-10T08:08:06.062Z,100099.47
2022-09-10T08:09:07.631Z,100094.16
2022-09-10T08:10:12.157Z,100086.00
2022-09-10T08:11:16.621Z,100096.66
2022-09-10T08:12:19.482Z,100093.31
2022-09-10T08:13:22.646Z,100094.16
2022-09-10T08:14:24.274Z,100096.47
2022-09-10T08:15:28.458Z,100092.81
2022-09-10T08:16:33.059Z,100103.81
2022-09-10T08:17:40.158Z,100099.97
2022-09-10T08:18:43.764Z,100104.16
2022-09-10T08:19:46.543Z,100101.84
2022-09-10T08:20:53.681Z,100101.72
2022-09-10T08:21:56.696Z,100097.75
2022-09-10T08:23:03.363Z,100107.06
2022-09-10T08:24:05.403Z,100097.59
2022-09-10T08:25:08.862Z,100105.22
2022-09-10T08:26:11.668Z,100111.22
2022-09-10T08:27:13.126Z,100110.38
2022-09-10T08:28:15.625Z,100110.06
2022-09-10T08:29:17.593Z,100112.88
2022-09-10T08:30:19.870Z,100118.34
2022-09-10T08:31:22.163Z,100112.88
2022-09-10T08:32:30.071Z,100114.84
2022-09-10T08:33:32.281Z,100106.88
2022-09-10T08:34:34.344Z,100108.22
2022-09-10T08:35:42.031Z,100118.69
2022-09-10T08:36:43.563Z,100112.19
2022-09-10T08:37:46.051Z,100112.38
2022-09-10T08:38:50.428Z,100112.56
2022-09-10T08:39:52.940Z,100108.56
2022-09-10T08:40:57.560Z,100117.03
2022-09-10T08:42:13.578Z,100100.75
2022-09-10T08:43:18.450Z,100111.38
2022-09-10T08:44:28.595Z,100107.94
2022-09-10T08:45:31.683Z,100106.78
2022-09-10T08:46:38.131Z,100108.44
2022-09-10T08:47:42.701Z,100110.59
2022-09-10T08:48:46.534Z,100111.94
2022-09-10T08:49:52.374Z,100117.25
2022-09-10T08:50:55.323Z,100121.41
2022-09-10T08:52:02.193Z,100118.06
2022-09-10T08:53:05.730Z,100110.44
2022-09-10T08:54:10.175Z,100106.56
2022-09-10T08:55:17.664Z,100114.22
2022-09-10T08:56:21.746Z,100119.88
2022-09-10T08:57:33.536Z,100119.38
2022-09-10T08:58:37.855Z,100114.41
2022-09-10T08:59:40.626Z,100116.91
2022-09-10T09:00:44.431Z,100114.25
2022-09-10T09:01:50.855Z,100117.59
2022-09-10T09:03:02.260Z,100121.75
2022-09-10T09:04:06.408Z,100119.97
2022-09-10T09:05:22.829Z,100119.13
2022-09-10T09:06:30.254Z,100117.78
2022-09-10T09:07:37.374Z,100119.97
2022-09-10T09:08:41.298Z,100116.09
2022-09-10T09:09:44.279Z,100121.44
2022-09-10T09:10:49.589Z,100125.59
2022-09-10T09:12:09.939Z,100124.63
2022-09-10T09:13:14.486Z,100110.66
2022-09-10T09:14:16.187Z,100128.16
2022-09-10T09:15:20.982Z,100110.84
2022-09-10T09:16:41.790Z,100119.34
2022-09-10T09:17:43.718Z,100123.97
2022-09-10T09:18:46.433Z,100118.84
2022-09-10T09:19:50.417Z,100122.16
2022-09-10T09:20:56.243Z,100128.16
2022-09-10T09:22:04.567Z,100121.84
2022-09-10T09:23:20.040Z,100129.16
2022-09-10T09:24:26.874Z,100129.00
2022-09-10T09:25:31.078Z,100131.69
2022-09-10T09:26:35.728Z,100132.19
2022-09-10T09:27:39.177Z,100125.69
2022-09-10T09:28:52.541Z,100120.88
2022-09-10T09:29:56.519Z,100133.84
2022-09-10T09:30:59.317Z,100132.31
2022-09-10T09:32:03.282Z,100130.03
2022-09-10T09:33:11.215Z,100130.03
2022-09-10T09:34:21.839Z,100131.34
2022-09-10T09:35:23.861Z,100130.34
2022-09-10T09:36:31.119Z,100130.84
2022-09-10T09:37:34.692Z,100125.03
2022-09-10T09:38:37.851Z,100129.19
2022-09-10T09:39:41.460Z,100131.69
2022-09-10T09:40:56.055Z,100121.41
2022-09-10T09:42:08.146Z,100122.22
2022-09-10T09:43:11.186Z,100121.56
2022-09-10T09:44:16.572Z,100114.25
2022-09-10T09:45:18.163Z,100114.75
2022-09-10T09:46:20.216Z,100115.25
2022-09-10T09:47:24.595Z,100123.94
2022-09-10T09:48:26.345Z,100113.09
2022-09-10T09:49:27.891Z,100104.28
2022-09-10T09:50:30.476Z,100127.41
2022-09-10T09:51:35.534Z,100121.41
2022-09-10T09:52:38.488Z,100119.94
2022-09-10T09:53:42.287Z,100108.28
2022-09-10T09:55:13.092Z,100119.31
2022-09-10T09:56:27.660Z,100105.28
2022-09-10T09:57:29.336Z,100116.59
2022-09-10T09:58:32.076Z,100122.25
2022-09-10T09:59:37.051Z,100119.94
2022-09-10T10:00:38.559Z,100123.09
2022-09-10T10:01:40.514Z,100119.31
2022-09-10T10:02:42.198Z,100125.97
2022-09-10T10:03:43.617Z,100127.13
2022-09-10T10:05:05.087Z,100113.81
2022-09-10T10:06:10.530Z,100107.31
2022-09-10T10:07:12.017Z,100115.97
2022-09-10T10:08:26.331Z,100120.78
2022-09-10T10:09:28.953Z,100116.78
2022-09-10T10:10:30.459Z,100116.97
2022-09-10T10:11:45.412Z,100113.16
2022-09-10T10:12:48.480Z,100112.47
2022-09-10T10:13:52.976Z,100118.81
2022-09-10T10:14:54.413Z,100113.81
2022-09-10T10:15:55.933Z,100112.66
2022-09-10T10:17:00.723Z,100105.66
2022-09-10T10:18:15.118Z,100102.34
2022-09-10T10:19:35.456Z,100096.69
2022-09-10T10:20:38.315Z,100106.50
2022-09-10T10:21:39.790Z,100103.50
2022-09-10T10:22:41.792Z,100107.00
2022-09-10T10:23:43.792Z,100113.16
2022-09-10T10:24:45.800Z,100101.97
2022-09-10T10:25:51.826Z,100099.50
2022-09-10T10:26:53.285Z,100098.84
2022-09-10T10:27:54.787Z,100097.53
2022-09-10T10:29:15.149Z,100091.00
2022-09-10T10:30:21.529Z,100102.00
2022-09-10T10:31:23.675Z,100093.84
2022-09-10T10:32:28.496Z,100096.47
2022-09-10T10:33:31.390Z,100096.97
2022-09-10T10:34:32.873Z,100097.97
2022-09-10T10:35:37.410Z,100095.31
2022-09-10T10:36:41.583Z,100091.94
2022-09-10T10:37:46.623Z,100095.25
2022-09-10T10:38:49.140Z,100095.25
2022-09-10T10:40:05.784Z,100088.13
2022-09-10T10:41:25.807Z,100096.97
2022-09-10T10:42:45.723Z,100097.97
2022-09-10T10:43:53.190Z,100098.63
2022-09-10T10:45:13.402Z,100090.66
2022-09-10T10:46:20.500Z,100088.47
2022-09-10T10:47:21.957Z,100089.44
2022-09-10T10:48:43.191Z,100081.63
2022-09-10T10:49:54.726Z,100094.28
2022-09-10T10:51:02.339Z,100097.94
2022-09-10T10:52:10.124Z,100086.81
2022-09-10T10:53:34.372Z,100084.31
2022-09-10T10:54:45.023Z,100095.78
2022-09-10T10:55:51.807Z,100093.13
2022-09-10T10:56:55.144Z,100085.63
2022-09-10T10:57:56.622Z,100100.94
2022-09-10T10:58:59.485Z,100108.94
2022-09-10T11:00:04.127Z,100101.97
2022-09-10T11:01:06.793Z,100095.81
2022-09-10T11:02:08.314Z,100105.97
2022-09-10T11:03:21.309Z,100095.47
2022-09-10T11:04:24.843Z,100097.97
2022-09-10T11:05:31.122Z,100096.13
2022-09-10T11:06:37.820Z,100095.13
2022-09-10T11:07:40.071Z,100093.78
2022-09-10T11:09:01.875Z,100091.47
2022-09-10T11:10:03.798Z,100097.13
2022-09-10T11:11:09.015Z,100096.47
2022-09-10T11:12:33.465Z,100096.94
2022-09-10T11:13:53.659Z,100086.44
2022-09-10T11:15:00.088Z,100081.78
2022-09-10T11:16:05.574Z,100099.28
2022-09-10T11:17:27.174Z,100095.94
2022-09-10T11:18:30.905Z,100089.59
2022-09-10T11:19:35.792Z,100101.09
2022-09-10T11:20:46.495Z,100091.06
2022-09-10T11:21:50.370Z,100088.25
2022-09-10T11:22:53.174Z,100086.56
2022-09-10T11:23:59.975Z,100104.25
2022-09-10T11:25:04.559Z,100111.59
2022-09-10T11:26:07.583Z,100096.44
2022-09-10T11:27:18.955Z,100098.59
2022-09-10T11:28:29.052Z,100097.09
2022-09-10T11:29:36.397Z,100093.25
2022-09-10T11:30:37.868Z,100082.56
2022-09-10T11:31:40.590Z,100086.56
2022-09-10T11:32:46.319Z,100091.69
2022-09-10T11:34:10.289Z,100088.69
2022-09-10T11:35:11.881Z,100105.97
2022-09-10T11:36:19.387Z,100079.94
2022-09-10T11:37:36.110Z,100083.94
2022-09-10T11:38:43.456Z,100076.53
2022-09-10T11:39:48.902Z,100088.34
2022-09-10T11:40:52.403Z,100082.34
2022-09-10T11:41:54.816Z,100081.84
2022-09-10T11:42:58.823Z,100079.72
2022-09-10T11:44:03.287Z,100085.03
2022-09-10T11:45:19.528Z,100086.69
2022-09-10T11:46:23.477Z,100098.38
2022-09-10T11:47:30.767Z,100079.00
2022-09-10T11:48:32.271Z,100077.34
2022-09-10T11:49:36.482Z,100075.00
2022-09-10T11:50:49.366Z,100097.84
2022-09-10T11:51:51.260Z,100082.63
2022-09-10T11:52:53.426Z,100093.16
2022-09-10T11:53:54.939Z,100094.50
2022-09-10T11:54:56.407Z,100098.16
2022-09-10T11:56:16.398Z,100089.31
2022-09-10T11:57:22.070Z,100089.13
2022-09-10T11:58:31.167Z,100091.28
2022-09-10T11:59:32.719Z,100090.59
2022-09-10T12:00:35.416Z,100095.44
2022-09-10T12:01:45.965Z,100097.81
2022-09-10T12:02:50.453Z,100099.84
2022-09-10T12:04:01.631Z,100104.69
2022-09-10T12:05:12.186Z,100095.84
2022-09-10T12:06:23.844Z,100101.00
2022-09-10T12:07:31.166Z,100092.84
2022-09-10T12:08:35.870Z,100084.34
2022-09-10T12:09:47.111Z,100096.19
2022-09-10T12:10:49.658Z,100090.53
2022-09-10T12:11:57.554Z,100090.19
2022-09-10T12:12:59.054Z,100099.66
2022-09-10T12:14:04.772Z,100090.53
2022-09-10T12:15:25.263Z,100089.19
2022-09-10T12:16:35.927Z,100085.13
2022-09-10T12:17:43.820Z,100087.97
2022-09-10T12:18:46.207Z,100079.22
2022-09-10T12:19:48.261Z,100083.38
2022-09-10T12:20:53.755Z,100083.03
2022-09-10T12:21:57.849Z,100085.69
2022-09-10T12:22:59.711Z,100091.16
2022-09-10T12:24:01.780Z,100078.28
2022-09-10T12:25:06.494Z,100084.81
2022-09-10T12:26:07.960Z,100075.13
2022-09-10T12:27:13.746Z,100088.63